Overview Statistics Trail Chart Weather Telemetry Raw packets
 

This is the latest recevied weather packets stored in our database for station/object KLEMETTI. If no packets are shown the sender has not sent any weather packets the latest 10 day(s).

<< 5 6 7 8 9 10 11 >>
Time Temp. Humidity Pressure Rain* Wind** Luminosity Snow
1788411883 12.78° C 97% 1000.7 hPa 0 mm - - -
1788410683 12.22° C 98% 1000.7 hPa 0 mm - - -
1788409484 12.22° C 98% 1000.6 hPa 0 mm - - -
1788407083 12.22° C 97% 1000.9 hPa 0 mm - - -
1788405883 12.22° C 96% 1000.9 hPa 0 mm - - -
1788403273 12.78° C 96% 1001.1 hPa 0 mm - - -
1788402285 12.78° C 96% 1001.2 hPa 0 mm - - -
1788401084 13.33° C 96% 1001.2 hPa 0 mm - - -
1788398683 13.33° C 95% 1001.3 hPa 0 mm - - -
1788397483 13.33° C 94% 1001.5 hPa 0 mm - - -
1788395084 13.33° C 95% 1001.7 hPa 0 mm - - -
1788393883 13.33° C 95% 1001.9 hPa 0 mm - - -
1788392685 13.33° C 95% 1002.2 hPa 0 mm - - -
1788390284 13.33° C 95% 1002.2 hPa 0 mm - - -
1788389085 13.33° C 94% 1002.3 hPa 0 mm - - -
1788387688 13.33° C 94% 1002.5 hPa 0 mm - - -
1788386684 13.33° C 93% 1002.7 hPa 0 mm - - -
1788385483 13.33° C 93% 1002.8 hPa 0 mm - - -
1788384282 13.89° C 93% 1003 hPa 0 mm - - -
1788381880 14.44° C 89% 1003.3 hPa 0 mm - - -
1788380681 15° C 87% 1003.5 hPa 0 mm - - -
1788379480 15° C 86% 1003.6 hPa 0 mm - - -
1788378280 15.56° C 83% 1003.7 hPa 0 mm - - -
1788377082 15.56° C 82% 1003.6 hPa 0 mm - - -
1788375881 15.56° C 82% 1003.7 hPa 0 mm - - -

* Rain latest hour (hover to see other rain measurements)
** Current wind speed in m/s (hover to see current wind gust speed)